sensor_id;sensor_type;location;lat;lon;timestamp;noise_LAeq;noise_LA_min;noise_LA_max;noise_LA01;noise_LA95
75467;Laerm;64050;50.634;3.062;2023-03-23T00:02:10;46.80;38.89;60.53;;
75467;Laerm;64050;50.634;3.062;2023-03-23T00:04:36;48.18;44.97;50.96;;
75467;Laerm;64050;50.634;3.062;2023-03-23T00:07:01;45.29;37.76;57.70;;
75467;Laerm;64050;50.634;3.062;2023-03-23T00:09:28;45.46;37.94;50.84;;
75467;Laerm;64050;50.634;3.062;2023-03-23T00:11:54;48.05;44.89;57.90;;
75467;Laerm;64050;50.634;3.062;2023-03-23T00:14:22;45.04;38.19;54.33;;
75467;Laerm;64050;50.634;3.062;2023-03-23T00:16:47;47.95;38.98;60.11;;
75467;Laerm;64050;50.634;3.062;2023-03-23T00:19:14;47.96;44.70;50.50;;
75467;Laerm;64050;50.634;3.062;2023-03-23T00:21:39;45.27;37.26;50.58;;
75467;Laerm;64050;50.634;3.062;2023-03-23T00:26:32;48.18;44.82;56.65;;
75467;Laerm;64050;50.634;3.062;2023-03-23T00:28:58;41.00;36.41;49.88;;
75467;Laerm;64050;50.634;3.062;2023-03-23T00:31:25;47.38;38.49;53.45;;
75467;Laerm;64050;50.634;3.062;2023-03-23T00:33:58;48.03;44.20;57.76;;
75467;Laerm;64050;50.634;3.062;2023-03-23T00:36:25;44.63;37.17;57.30;;
75467;Laerm;64050;50.634;3.062;2023-03-23T00:38:51;46.84;38.21;55.83;;
75467;Laerm;64050;50.634;3.062;2023-03-23T00:41:17;48.09;37.65;59.68;;
75467;Laerm;64050;50.634;3.062;2023-03-23T00:43:42;40.28;35.96;52.45;;
75467;Laerm;64050;50.634;3.062;2023-03-23T00:46:07;47.34;36.74;50.72;;
75467;Laerm;64050;50.634;3.062;2023-03-23T00:48:34;47.36;37.16;60.37;;
75467;Laerm;64050;50.634;3.062;2023-03-23T00:51:00;42.01;36.61;60.47;;
75467;Laerm;64050;50.634;3.062;2023-03-23T00:53:26;49.64;45.39;62.03;;
75467;Laerm;64050;50.634;3.062;2023-03-23T00:55:51;48.52;39.18;61.73;;
75467;Laerm;64050;50.634;3.062;2023-03-23T00:58:16;45.61;37.76;52.27;;
75467;Laerm;64050;50.634;3.062;2023-03-23T01:00:42;47.85;44.29;54.41;;
75467;Laerm;64050;50.634;3.062;2023-03-23T01:03:08;48.23;44.46;61.01;;
75467;Laerm;64050;50.634;3.062;2023-03-23T01:05:37;45.37;36.54;57.77;;
75467;Laerm;64050;50.634;3.062;2023-03-23T01:08:03;48.46;44.63;64.58;;
75467;Laerm;64050;50.634;3.062;2023-03-23T01:10:28;47.87;44.40;51.16;;
75467;Laerm;64050;50.634;3.062;2023-03-23T01:12:57;45.27;37.25;50.04;;
75467;Laerm;64050;50.634;3.062;2023-03-23T01:15:23;47.88;45.08;51.61;;
75467;Laerm;64050;50.634;3.062;2023-03-23T01:17:48;47.46;44.49;49.93;;
75467;Laerm;64050;50.634;3.062;2023-03-23T01:20:14;45.65;37.09;56.98;;
75467;Laerm;64050;50.634;3.062;2023-03-23T01:22:40;47.85;44.29;51.92;;
75467;Laerm;64050;50.634;3.062;2023-03-23T01:25:05;47.32;37.75;55.01;;
75467;Laerm;64050;50.634;3.062;2023-03-23T01:27:31;43.32;36.66;61.30;;
75467;Laerm;64050;50.634;3.062;2023-03-23T01:29:56;48.34;45.30;54.32;;
75467;Laerm;64050;50.634;3.062;2023-03-23T01:32:21;45.40;36.69;50.79;;
75467;Laerm;64050;50.634;3.062;2023-03-23T01:34:47;46.55;36.72;57.79;;
75467;Laerm;64050;50.634;3.062;2023-03-23T01:37:12;47.75;43.69;50.74;;
75467;Laerm;64050;50.634;3.062;2023-03-23T01:39:37;45.42;36.64;49.94;;
75467;Laerm;64050;50.634;3.062;2023-03-23T01:42:03;48.04;37.76;50.98;;
75467;Laerm;64050;50.634;3.062;2023-03-23T01:46:56;39.80;36.62;51.67;;
75467;Laerm;64050;50.634;3.062;2023-03-23T01:49:26;48.51;44.70;58.65;;
75467;Laerm;64050;50.634;3.062;2023-03-23T01:51:54;45.64;34.54;52.41;;
75467;Laerm;64050;50.634;3.062;2023-03-23T01:54:21;47.13;35.96;54.88;;
75467;Laerm;64050;50.634;3.062;2023-03-23T01:56:48;48.21;45.01;51.01;;
75467;Laerm;64050;50.634;3.062;2023-03-23T01:59:15;47.53;37.12;51.00;;
75467;Laerm;64050;50.634;3.062;2023-03-23T02:01:41;39.31;36.51;53.02;;
75467;Laerm;64050;50.634;3.062;2023-03-23T02:04:10;40.06;35.78;44.20;;
75467;Laerm;64050;50.634;3.062;2023-03-23T02:06:36;37.69;35.25;45.42;;
75467;Laerm;64050;50.634;3.062;2023-03-23T02:09:01;37.97;35.46;47.17;;
75467;Laerm;64050;50.634;3.062;2023-03-23T02:11:27;40.58;35.31;49.28;;
75467;Laerm;64050;50.634;3.062;2023-03-23T02:13:52;48.16;39.00;57.87;;
75467;Laerm;64050;50.634;3.062;2023-03-23T02:26:55;48.05;45.10;50.47;;
75467;Laerm;64050;50.634;3.062;2023-03-23T02:34:32;47.92;44.87;55.00;;
75467;Laerm;64050;50.634;3.062;2023-03-23T02:37:08;45.84;36.81;53.40;;
75467;Laerm;64050;50.634;3.062;2023-03-23T02:39:40;48.32;44.68;55.26;;
75467;Laerm;64050;50.634;3.062;2023-03-23T02:42:08;43.38;36.19;52.55;;
75467;Laerm;64050;50.634;3.062;2023-03-23T02:44:39;48.59;37.21;71.61;;
75467;Laerm;64050;50.634;3.062;2023-03-23T02:47:06;46.95;37.49;55.99;;
75467;Laerm;64050;50.634;3.062;2023-03-23T02:49:33;42.60;37.21;54.20;;
75467;Laerm;64050;50.634;3.062;2023-03-23T02:52:01;48.07;44.72;50.79;;
75467;Laerm;64050;50.634;3.062;2023-03-23T02:54:28;47.54;37.25;52.60;;
75467;Laerm;64050;50.634;3.062;2023-03-23T02:56:53;46.21;36.48;50.50;;
75467;Laerm;64050;50.634;3.062;2023-03-23T02:59:20;50.51;38.06;71.81;;
75467;Laerm;64050;50.634;3.062;2023-03-23T03:01:48;40.29;36.77;55.39;;
75467;Laerm;64050;50.634;3.062;2023-03-23T03:04:15;47.89;36.90;52.57;;
75467;Laerm;64050;50.634;3.062;2023-03-23T03:11:35;47.99;44.36;63.58;;
75467;Laerm;64050;50.634;3.062;2023-03-23T03:14:04;47.19;37.86;50.62;;
75467;Laerm;64050;50.634;3.062;2023-03-23T03:19:23;47.45;40.66;51.68;;
75467;Laerm;64050;50.634;3.062;2023-03-23T03:21:50;43.85;38.60;53.29;;
75467;Laerm;64050;50.634;3.062;2023-03-23T03:24:18;48.18;45.23;54.92;;
75467;Laerm;64050;50.634;3.062;2023-03-23T03:26:44;45.16;36.15;50.23;;
75467;Laerm;64050;50.634;3.062;2023-03-23T03:29:12;46.36;37.14;50.48;;
75467;Laerm;64050;50.634;3.062;2023-03-23T03:31:39;47.69;44.54;50.74;;
75467;Laerm;64050;50.634;3.062;2023-03-23T03:34:05;46.49;38.71;62.31;;
75467;Laerm;64050;50.634;3.062;2023-03-23T03:36:32;48.29;45.14;51.37;;
75467;Laerm;64050;50.634;3.062;2023-03-23T03:39:00;45.44;36.93;51.50;;
75467;Laerm;64050;50.634;3.062;2023-03-23T03:41:28;46.69;39.68;56.72;;
75467;Laerm;64050;50.634;3.062;2023-03-23T03:43:54;47.67;37.97;57.10;;
75467;Laerm;64050;50.634;3.062;2023-03-23T03:46:19;43.13;37.14;67.42;;
75467;Laerm;64050;50.634;3.062;2023-03-23T03:48:44;47.84;40.91;51.30;;
75467;Laerm;64050;50.634;3.062;2023-03-23T03:51:09;47.02;37.60;50.83;;
75467;Laerm;64050;50.634;3.062;2023-03-23T03:53:35;46.87;37.37;51.42;;
75467;Laerm;64050;50.634;3.062;2023-03-23T03:56:00;48.44;39.04;50.93;;
75467;Laerm;64050;50.634;3.062;2023-03-23T03:58:26;41.35;37.76;50.70;;
75467;Laerm;64050;50.634;3.062;2023-03-23T04:00:59;48.02;37.51;51.44;;
75467;Laerm;64050;50.634;3.062;2023-03-23T04:03:25;46.17;37.51;55.27;;
75467;Laerm;64050;50.634;3.062;2023-03-23T04:05:51;43.93;37.41;51.85;;
75467;Laerm;64050;50.634;3.062;2023-03-23T04:08:17;48.01;43.57;51.42;;
75467;Laerm;64050;50.634;3.062;2023-03-23T04:10:43;47.42;41.89;58.92;;
75467;Laerm;64050;50.634;3.062;2023-03-23T04:13:09;47.50;41.33;52.16;;
75467;Laerm;64050;50.634;3.062;2023-03-23T04:15:34;48.58;39.48;59.04;;
75467;Laerm;64050;50.634;3.062;2023-03-23T04:17:59;40.96;38.08;48.59;;
75467;Laerm;64050;50.634;3.062;2023-03-23T04:20:25;47.59;36.72;54.80;;
75467;Laerm;64050;50.634;3.062;2023-03-23T04:22:52;46.01;37.66;51.23;;
75467;Laerm;64050;50.634;3.062;2023-03-23T04:25:20;44.92;37.74;52.44;;
75467;Laerm;64050;50.634;3.062;2023-03-23T04:27:46;48.03;44.85;50.73;;
75467;Laerm;64050;50.634;3.062;2023-03-23T04:30:17;46.76;38.90;50.42;;
75467;Laerm;64050;50.634;3.062;2023-03-23T04:32:42;48.07;39.38;56.22;;
75467;Laerm;64050;50.634;3.062;2023-03-23T04:35:09;47.41;38.47;59.60;;
75467;Laerm;64050;50.634;3.062;2023-03-23T04:37:35;45.58;38.82;56.08;;
75467;Laerm;64050;50.634;3.062;2023-03-23T04:40:01;48.98;45.74;54.39;;
75467;Laerm;64050;50.634;3.062;2023-03-23T04:42:31;45.06;40.65;52.69;;
75467;Laerm;64050;50.634;3.062;2023-03-23T04:44:57;48.93;40.35;62.87;;
75467;Laerm;64050;50.634;3.062;2023-03-23T04:47:23;49.20;45.47;59.94;;
75467;Laerm;64050;50.634;3.062;2023-03-23T04:49:48;48.04;42.35;66.31;;
75467;Laerm;64050;50.634;3.062;2023-03-23T04:52:14;49.38;45.53;54.20;;
75467;Laerm;64050;50.634;3.062;2023-03-23T04:54:39;46.76;41.31;64.30;;
75467;Laerm;64050;50.634;3.062;2023-03-23T04:57:05;48.50;40.91;57.94;;
75467;Laerm;64050;50.634;3.062;2023-03-23T04:59:30;48.54;42.09;58.48;;
75467;Laerm;64050;50.634;3.062;2023-03-23T05:01:56;45.39;41.77;51.21;;
75467;Laerm;64050;50.634;3.062;2023-03-23T05:04:21;49.80;46.34;58.52;;
75467;Laerm;64050;50.634;3.062;2023-03-23T05:06:47;46.47;41.23;51.06;;
75467;Laerm;64050;50.634;3.062;2023-03-23T05:09:13;47.10;41.20;53.02;;
75467;Laerm;64050;50.634;3.062;2023-03-23T05:11:38;49.73;43.45;54.13;;
75467;Laerm;64050;50.634;3.062;2023-03-23T05:14:03;52.36;42.27;64.46;;
75467;Laerm;64050;50.634;3.062;2023-03-23T05:16:29;51.77;46.90;63.96;;
75467;Laerm;64050;50.634;3.062;2023-03-23T05:18:55;47.95;41.11;56.26;;
75467;Laerm;64050;50.634;3.062;2023-03-23T05:21:22;49.42;46.10;57.54;;
75467;Laerm;64050;50.634;3.062;2023-03-23T05:23:47;50.94;46.13;56.04;;
75467;Laerm;64050;50.634;3.062;2023-03-23T05:26:19;49.43;42.55;54.49;;
75467;Laerm;64050;50.634;3.062;2023-03-23T05:28:44;50.23;46.44;56.41;;
75467;Laerm;64050;50.634;3.062;2023-03-23T05:31:10;50.28;43.50;57.23;;
75467;Laerm;64050;50.634;3.062;2023-03-23T05:33:35;58.37;53.01;65.13;;
75467;Laerm;64050;50.634;3.062;2023-03-23T05:36:01;58.81;55.31;62.20;;
75467;Laerm;64050;50.634;3.062;2023-03-23T05:38:29;56.57;49.63;61.29;;
75467;Laerm;64050;50.634;3.062;2023-03-23T05:40:57;58.24;52.57;64.51;;
75467;Laerm;64050;50.634;3.062;2023-03-23T05:43:24;66.45;55.12;71.03;;
75467;Laerm;64050;50.634;3.062;2023-03-23T05:45:50;53.43;48.86;58.87;;
75467;Laerm;64050;50.634;3.062;2023-03-23T05:48:15;51.18;46.94;58.97;;
75467;Laerm;64050;50.634;3.062;2023-03-23T05:50:41;48.79;42.19;63.38;;
75467;Laerm;64050;50.634;3.062;2023-03-23T05:53:06;50.12;42.69;62.55;;
75467;Laerm;64050;50.634;3.062;2023-03-23T05:55:31;51.17;45.61;61.78;;
75467;Laerm;64050;50.634;3.062;2023-03-23T05:57:58;46.40;40.86;56.12;;
75467;Laerm;64050;50.634;3.062;2023-03-23T06:00:23;49.01;45.70;56.77;;
75467;Laerm;64050;50.634;3.062;2023-03-23T06:02:49;47.27;39.78;58.96;;
75467;Laerm;64050;50.634;3.062;2023-03-23T06:05:16;51.39;39.34;66.18;;
75467;Laerm;64050;50.634;3.062;2023-03-23T06:07:42;51.10;47.01;62.23;;
75467;Laerm;64050;50.634;3.062;2023-03-23T06:10:08;47.19;39.45;54.74;;
75467;Laerm;64050;50.634;3.062;2023-03-23T06:12:34;49.37;46.02;55.36;;
75467;Laerm;64050;50.634;3.062;2023-03-23T06:14:59;48.69;42.03;60.83;;
75467;Laerm;64050;50.634;3.062;2023-03-23T06:17:25;53.15;41.63;68.99;;
75467;Laerm;64050;50.634;3.062;2023-03-23T06:19:51;51.81;44.66;74.21;;
75467;Laerm;64050;50.634;3.062;2023-03-23T06:22:16;49.51;40.12;69.65;;
75467;Laerm;64050;50.634;3.062;2023-03-23T06:24:42;53.14;40.65;77.16;;
75467;Laerm;64050;50.634;3.062;2023-03-23T06:27:07;58.79;42.31;79.26;;
75467;Laerm;64050;50.634;3.062;2023-03-23T06:29:33;65.40;47.12;77.77;;
75467;Laerm;64050;50.634;3.062;2023-03-23T06:32:00;51.25;42.22;70.84;;
75467;Laerm;64050;50.634;3.062;2023-03-23T06:34:27;54.34;40.69;66.58;;
75467;Laerm;64050;50.634;3.062;2023-03-23T06:36:52;50.04;46.23;56.84;;
75467;Laerm;64050;50.634;3.062;2023-03-23T06:39:18;55.07;42.29;77.01;;
75467;Laerm;64050;50.634;3.062;2023-03-23T06:41:43;52.44;41.56;69.39;;
75467;Laerm;64050;50.634;3.062;2023-03-23T06:44:09;51.15;41.19;70.76;;
75467;Laerm;64050;50.634;3.062;2023-03-23T06:46:38;50.49;43.08;74.30;;
75467;Laerm;64050;50.634;3.062;2023-03-23T06:49:03;50.13;44.10;73.30;;
75467;Laerm;64050;50.634;3.062;2023-03-23T06:51:28;52.51;42.15;77.44;;
75467;Laerm;64050;50.634;3.062;2023-03-23T06:53:53;50.61;42.29;61.00;;
75467;Laerm;64050;50.634;3.062;2023-03-23T06:56:19;47.20;43.34;53.08;;
75467;Laerm;64050;50.634;3.062;2023-03-23T06:58:44;50.64;46.24;57.91;;
75467;Laerm;64050;50.634;3.062;2023-03-23T07:01:10;46.11;41.59;51.65;;
75467;Laerm;64050;50.634;3.062;2023-03-23T07:03:35;48.14;42.45;55.08;;
75467;Laerm;64050;50.634;3.062;2023-03-23T07:06:01;49.18;42.62;61.61;;
75467;Laerm;64050;50.634;3.062;2023-03-23T07:08:27;49.39;42.39;63.39;;
75467;Laerm;64050;50.634;3.062;2023-03-23T07:10:52;49.46;44.05;58.16;;
75467;Laerm;64050;50.634;3.062;2023-03-23T07:13:18;47.73;41.53;57.79;;
75467;Laerm;64050;50.634;3.062;2023-03-23T07:15:44;49.67;45.59;55.42;;
75467;Laerm;64050;50.634;3.062;2023-03-23T07:18:09;46.42;40.58;60.84;;
75467;Laerm;64050;50.634;3.062;2023-03-23T07:20:35;47.62;40.95;56.36;;
75467;Laerm;64050;50.634;3.062;2023-03-23T07:23:01;51.49;43.38;63.96;;
75467;Laerm;64050;50.634;3.062;2023-03-23T07:25:26;48.64;41.82;52.84;;
75467;Laerm;64050;50.634;3.062;2023-03-23T07:27:52;49.19;42.20;54.03;;
75467;Laerm;64050;50.634;3.062;2023-03-23T07:30:17;48.46;42.53;52.20;;
75467;Laerm;64050;50.634;3.062;2023-03-23T07:32:42;48.75;41.26;63.11;;
75467;Laerm;64050;50.634;3.062;2023-03-23T07:35:08;48.03;41.19;57.44;;
75467;Laerm;64050;50.634;3.062;2023-03-23T07:37:34;50.90;46.18;75.10;;
75467;Laerm;64050;50.634;3.062;2023-03-23T07:40:00;46.42;42.05;59.76;;
75467;Laerm;64050;50.634;3.062;2023-03-23T07:42:32;48.82;42.66;60.80;;
75467;Laerm;64050;50.634;3.062;2023-03-23T07:44:57;48.41;42.16;61.05;;
75467;Laerm;64050;50.634;3.062;2023-03-23T07:47:23;59.02;45.91;86.02;;
75467;Laerm;64050;50.634;3.062;2023-03-23T07:49:48;52.65;43.99;70.97;;
75467;Laerm;64050;50.634;3.062;2023-03-23T07:52:13;51.62;43.57;75.13;;
75467;Laerm;64050;50.634;3.062;2023-03-23T07:54:38;48.28;41.90;63.00;;
75467;Laerm;64050;50.634;3.062;2023-03-23T07:57:04;47.09;41.84;60.89;;
75467;Laerm;64050;50.634;3.062;2023-03-23T07:59:29;48.76;42.73;74.35;;
75467;Laerm;64050;50.634;3.062;2023-03-23T08:01:55;47.69;41.28;62.19;;
75467;Laerm;64050;50.634;3.062;2023-03-23T08:04:22;51.51;44.98;75.87;;
75467;Laerm;64050;50.634;3.062;2023-03-23T08:06:48;50.91;45.75;60.62;;
75467;Laerm;64050;50.634;3.062;2023-03-23T08:09:14;49.74;45.44;60.07;;
75467;Laerm;64050;50.634;3.062;2023-03-23T08:11:40;49.90;45.42;62.28;;
75467;Laerm;64050;50.634;3.062;2023-03-23T08:14:06;49.50;46.27;62.71;;
75467;Laerm;64050;50.634;3.062;2023-03-23T08:16:31;50.28;45.47;69.16;;
75467;Laerm;64050;50.634;3.062;2023-03-23T08:18:57;50.15;46.38;62.84;;
75467;Laerm;64050;50.634;3.062;2023-03-23T08:21:22;52.40;46.12;66.13;;
75467;Laerm;64050;50.634;3.062;2023-03-23T08:23:48;53.53;48.43;70.72;;
75467;Laerm;64050;50.634;3.062;2023-03-23T08:26:13;51.54;45.26;71.50;;
75467;Laerm;64050;50.634;3.062;2023-03-23T08:28:40;51.24;43.80;75.10;;
75467;Laerm;64050;50.634;3.062;2023-03-23T08:31:07;48.51;43.30;65.52;;
75467;Laerm;64050;50.634;3.062;2023-03-23T08:33:33;48.94;43.98;69.31;;
75467;Laerm;64050;50.634;3.062;2023-03-23T08:35:59;50.95;44.70;68.32;;
75467;Laerm;64050;50.634;3.062;2023-03-23T08:38:24;51.57;43.72;70.35;;
75467;Laerm;64050;50.634;3.062;2023-03-23T08:40:50;54.58;47.99;78.85;;
75467;Laerm;64050;50.634;3.062;2023-03-23T08:43:16;52.27;48.89;64.33;;
75467;Laerm;64050;50.634;3.062;2023-03-23T08:45:41;51.35;47.88;61.99;;
75467;Laerm;64050;50.634;3.062;2023-03-23T08:48:06;51.79;47.96;61.97;;
75467;Laerm;64050;50.634;3.062;2023-03-23T08:50:32;51.57;46.60;61.22;;
75467;Laerm;64050;50.634;3.062;2023-03-23T08:52:57;51.03;47.21;59.24;;
75467;Laerm;64050;50.634;3.062;2023-03-23T08:55:23;51.80;47.72;61.04;;
75467;Laerm;64050;50.634;3.062;2023-03-23T08:57:49;51.70;47.30;61.83;;
75467;Laerm;64050;50.634;3.062;2023-03-23T09:00:16;52.00;48.59;61.43;;
75467;Laerm;64050;50.634;3.062;2023-03-23T09:02:45;51.60;47.36;61.27;;
75467;Laerm;64050;50.634;3.062;2023-03-23T09:05:12;51.79;47.75;68.36;;
75467;Laerm;64050;50.634;3.062;2023-03-23T09:07:38;53.17;47.93;68.23;;
75467;Laerm;64050;50.634;3.062;2023-03-23T09:10:04;54.16;48.17;70.01;;
75467;Laerm;64050;50.634;3.062;2023-03-23T09:12:29;54.05;47.85;79.56;;
75467;Laerm;64050;50.634;3.062;2023-03-23T09:14:55;52.18;47.76;61.60;;
75467;Laerm;64050;50.634;3.062;2023-03-23T09:17:20;51.67;47.56;62.34;;
75467;Laerm;64050;50.634;3.062;2023-03-23T09:19:45;52.38;47.81;70.08;;
75467;Laerm;64050;50.634;3.062;2023-03-23T09:22:11;52.21;47.78;67.73;;
75467;Laerm;64050;50.634;3.062;2023-03-23T09:24:36;53.18;47.80;68.39;;
75467;Laerm;64050;50.634;3.062;2023-03-23T09:27:02;53.40;48.23;68.32;;
75467;Laerm;64050;50.634;3.062;2023-03-23T09:29:28;57.01;49.16;83.07;;
75467;Laerm;64050;50.634;3.062;2023-03-23T09:31:54;56.97;49.95;77.85;;
75467;Laerm;64050;50.634;3.062;2023-03-23T09:34:19;55.68;49.40;74.80;;
75467;Laerm;64050;50.634;3.062;2023-03-23T09:36:44;53.95;49.48;64.28;;
75467;Laerm;64050;50.634;3.062;2023-03-23T09:39:10;52.47;48.56;61.77;;
75467;Laerm;64050;50.634;3.062;2023-03-23T09:49:15;56.53;48.87;76.36;;
75467;Laerm;64050;50.634;3.062;2023-03-23T09:56:42;53.01;48.21;65.64;;
75467;Laerm;64050;50.634;3.062;2023-03-23T10:01:49;55.82;51.17;78.08;;
75467;Laerm;64050;50.634;3.062;2023-03-23T10:06:58;56.10;52.20;68.84;;
75467;Laerm;64050;50.634;3.062;2023-03-23T10:09:25;56.13;51.85;67.47;;
75467;Laerm;64050;50.634;3.062;2023-03-23T10:14:25;55.26;51.87;67.13;;
75467;Laerm;64050;50.634;3.062;2023-03-23T10:17:16;55.67;51.74;66.86;;
75467;Laerm;64050;50.634;3.062;2023-03-23T10:22:05;55.32;51.44;67.35;;
75467;Laerm;64050;50.634;3.062;2023-03-23T10:24:57;55.66;51.58;70.86;;
75467;Laerm;64050;50.634;3.062;2023-03-23T10:27:24;55.32;52.00;67.77;;
75467;Laerm;64050;50.634;3.062;2023-03-23T10:30:02;54.82;51.34;60.63;;
75467;Laerm;64050;50.634;3.062;2023-03-23T10:32:39;54.96;51.45;60.87;;
75467;Laerm;64050;50.634;3.062;2023-03-23T10:35:06;55.38;51.90;66.88;;
75467;Laerm;64050;50.634;3.062;2023-03-23T10:37:38;56.08;51.43;71.80;;
75467;Laerm;64050;50.634;3.062;2023-03-23T10:40:04;56.85;51.54;71.66;;
75467;Laerm;64050;50.634;3.062;2023-03-23T10:42:35;56.50;52.19;70.92;;
75467;Laerm;64050;50.634;3.062;2023-03-23T10:47:41;57.13;52.20;71.99;;
75467;Laerm;64050;50.634;3.062;2023-03-23T10:50:18;58.24;51.67;70.73;;
75467;Laerm;64050;50.634;3.062;2023-03-23T10:52:47;56.25;52.29;66.10;;
75467;Laerm;64050;50.634;3.062;2023-03-23T10:55:16;57.18;52.40;69.90;;
75467;Laerm;64050;50.634;3.062;2023-03-23T10:57:46;57.82;52.05;71.08;;
75467;Laerm;64050;50.634;3.062;2023-03-23T11:02:39;56.35;52.18;74.92;;
75467;Laerm;64050;50.634;3.062;2023-03-23T11:05:09;55.85;51.79;63.80;;
75467;Laerm;64050;50.634;3.062;2023-03-23T11:07:38;56.62;52.11;68.62;;
75467;Laerm;64050;50.634;3.062;2023-03-23T11:10:06;58.68;52.06;85.60;;
75467;Laerm;64050;50.634;3.062;2023-03-23T11:12:34;57.21;52.47;66.46;;
75467;Laerm;64050;50.634;3.062;2023-03-23T11:15:20;57.05;51.88;66.54;;
75467;Laerm;64050;50.634;3.062;2023-03-23T11:17:54;56.99;52.71;65.72;;
75467;Laerm;64050;50.634;3.062;2023-03-23T11:20:20;56.74;52.17;67.74;;
75467;Laerm;64050;50.634;3.062;2023-03-23T11:22:45;56.08;52.06;63.36;;
75467;Laerm;64050;50.634;3.062;2023-03-23T11:25:12;56.48;52.40;63.11;;
75467;Laerm;64050;50.634;3.062;2023-03-23T11:27:38;56.84;52.19;65.68;;
75467;Laerm;64050;50.634;3.062;2023-03-23T11:30:09;56.47;52.28;63.65;;
75467;Laerm;64050;50.634;3.062;2023-03-23T11:32:34;56.55;51.96;64.01;;
75467;Laerm;64050;50.634;3.062;2023-03-23T11:35:02;56.28;51.96;69.07;;
75467;Laerm;64050;50.634;3.062;2023-03-23T11:37:32;57.12;52.18;69.69;;
75467;Laerm;64050;50.634;3.062;2023-03-23T11:40:01;57.52;52.80;68.60;;
75467;Laerm;64050;50.634;3.062;2023-03-23T11:42:35;56.90;51.99;66.22;;
75467;Laerm;64050;50.634;3.062;2023-03-23T11:45:14;57.76;52.12;66.55;;
75467;Laerm;64050;50.634;3.062;2023-03-23T11:47:42;58.82;53.05;68.91;;
75467;Laerm;64050;50.634;3.062;2023-03-23T11:50:10;57.66;52.94;65.53;;
75467;Laerm;64050;50.634;3.062;2023-03-23T11:52:43;57.45;52.22;71.16;;
75467;Laerm;64050;50.634;3.062;2023-03-23T11:55:13;57.81;52.14;68.08;;
75467;Laerm;64050;50.634;3.062;2023-03-23T11:57:39;57.08;52.15;64.84;;
75467;Laerm;64050;50.634;3.062;2023-03-23T12:00:39;57.00;52.44;67.85;;
75467;Laerm;64050;50.634;3.062;2023-03-23T12:05:53;60.43;51.71;79.03;;
75467;Laerm;64050;50.634;3.062;2023-03-23T12:09:04;57.11;52.10;65.23;;
75467;Laerm;64050;50.634;3.062;2023-03-23T12:26:56;57.03;52.59;69.63;;
75467;Laerm;64050;50.634;3.062;2023-03-23T12:29:35;56.21;51.22;69.04;;
75467;Laerm;64050;50.634;3.062;2023-03-23T12:37:10;57.25;52.59;68.37;;
75467;Laerm;64050;50.634;3.062;2023-03-23T12:39:50;57.04;52.53;66.49;;
75467;Laerm;64050;50.634;3.062;2023-03-23T12:44:55;57.09;52.57;70.70;;
75467;Laerm;64050;50.634;3.062;2023-03-23T12:52:40;57.71;52.71;65.85;;
75467;Laerm;64050;50.634;3.062;2023-03-23T12:55:13;57.35;52.73;66.30;;
75467;Laerm;64050;50.634;3.062;2023-03-23T13:07:59;57.78;52.63;77.96;;
75467;Laerm;64050;50.634;3.062;2023-03-23T13:10:27;56.74;52.13;67.81;;
75467;Laerm;64050;50.634;3.062;2023-03-23T13:12:53;59.00;51.83;70.80;;
75467;Laerm;64050;50.634;3.062;2023-03-23T13:15:27;57.00;50.00;72.90;;
75467;Laerm;64050;50.634;3.062;2023-03-23T13:18:15;57.67;49.42;74.14;;
75467;Laerm;64050;50.634;3.062;2023-03-23T13:23:28;54.64;49.05;65.92;;
75467;Laerm;64050;50.634;3.062;2023-03-23T13:28:29;58.41;48.00;80.56;;
75467;Laerm;64050;50.634;3.062;2023-03-23T13:31:02;54.52;47.80;72.61;;
75467;Laerm;64050;50.634;3.062;2023-03-23T13:33:29;55.08;46.94;72.38;;
75467;Laerm;64050;50.634;3.062;2023-03-23T13:35:55;54.84;46.05;68.19;;
75467;Laerm;64050;50.634;3.062;2023-03-23T13:38:25;52.49;45.84;78.64;;
75467;Laerm;64050;50.634;3.062;2023-03-23T13:40:50;51.50;45.69;65.45;;
75467;Laerm;64050;50.634;3.062;2023-03-23T13:43:29;53.73;46.03;73.91;;
75467;Laerm;64050;50.634;3.062;2023-03-23T13:46:05;53.15;45.98;72.96;;
75467;Laerm;64050;50.634;3.062;2023-03-23T13:48:39;52.13;46.14;67.26;;
75467;Laerm;64050;50.634;3.062;2023-03-23T13:51:22;53.99;46.82;70.51;;
75467;Laerm;64050;50.634;3.062;2023-03-23T13:53:48;56.62;45.70;78.57;;
75467;Laerm;64050;50.634;3.062;2023-03-23T13:56:18;55.13;45.35;77.15;;
75467;Laerm;64050;50.634;3.062;2023-03-23T13:58:48;51.53;46.40;63.67;;
75467;Laerm;64050;50.634;3.062;2023-03-23T14:01:15;51.36;46.43;67.51;;
75467;Laerm;64050;50.634;3.062;2023-03-23T14:03:42;51.16;46.27;70.62;;
75467;Laerm;64050;50.634;3.062;2023-03-23T14:06:14;50.20;46.14;62.04;;
75467;Laerm;64050;50.634;3.062;2023-03-23T14:08:41;50.53;46.61;65.22;;
75467;Laerm;64050;50.634;3.062;2023-03-23T14:11:19;50.51;46.54;62.22;;
75467;Laerm;64050;50.634;3.062;2023-03-23T14:13:47;51.05;46.51;63.99;;
75467;Laerm;64050;50.634;3.062;2023-03-23T14:18:56;53.52;47.07;71.02;;
75467;Laerm;64050;50.634;3.062;2023-03-23T14:21:32;50.53;46.33;60.09;;
75467;Laerm;64050;50.634;3.062;2023-03-23T14:24:11;50.92;46.53;67.18;;
75467;Laerm;64050;50.634;3.062;2023-03-23T14:26:37;50.78;47.03;65.95;;
75467;Laerm;64050;50.634;3.062;2023-03-23T14:29:03;50.33;47.24;60.36;;
75467;Laerm;64050;50.634;3.062;2023-03-23T14:31:29;51.60;46.89;69.18;;
75467;Laerm;64050;50.634;3.062;2023-03-23T14:33:55;55.25;47.16;76.37;;
75467;Laerm;64050;50.634;3.062;2023-03-23T14:36:26;51.30;47.29;65.02;;
75467;Laerm;64050;50.634;3.062;2023-03-23T14:39:06;58.03;47.17;78.87;;
75467;Laerm;64050;50.634;3.062;2023-03-23T14:41:32;57.36;47.93;70.59;;
75467;Laerm;64050;50.634;3.062;2023-03-23T14:43:59;51.82;47.56;62.28;;
75467;Laerm;64050;50.634;3.062;2023-03-23T14:46:25;59.12;48.72;71.84;;
75467;Laerm;64050;50.634;3.062;2023-03-23T14:48:50;53.72;48.88;65.92;;
75467;Laerm;64050;50.634;3.062;2023-03-23T14:51:19;53.05;47.73;72.00;;
75467;Laerm;64050;50.634;3.062;2023-03-23T14:53:45;52.66;48.48;65.76;;
75467;Laerm;64050;50.634;3.062;2023-03-23T14:56:14;52.83;47.85;68.96;;
75467;Laerm;64050;50.634;3.062;2023-03-23T14:58:47;51.88;47.00;64.05;;
75467;Laerm;64050;50.634;3.062;2023-03-23T15:01:19;51.69;46.67;76.76;;
75467;Laerm;64050;50.634;3.062;2023-03-23T15:03:55;51.61;47.75;67.26;;
75467;Laerm;64050;50.634;3.062;2023-03-23T15:06:22;51.00;47.39;60.03;;
75467;Laerm;64050;50.634;3.062;2023-03-23T15:08:50;51.13;47.26;61.32;;
75467;Laerm;64050;50.634;3.062;2023-03-23T15:13:47;51.65;47.88;61.21;;
75467;Laerm;64050;50.634;3.062;2023-03-23T15:16:14;52.38;48.06;62.70;;
75467;Laerm;64050;50.634;3.062;2023-03-23T15:18:44;54.43;47.51;69.29;;
75467;Laerm;64050;50.634;3.062;2023-03-23T15:21:55;55.46;48.46;70.23;;
75467;Laerm;64050;50.634;3.062;2023-03-23T15:24:02;52.52;47.00;70.05;;
75467;Laerm;64050;50.634;3.062;2023-03-23T15:26:29;52.44;47.29;74.27;;
75467;Laerm;64050;50.634;3.062;2023-03-23T15:29:00;51.88;47.72;69.62;;
75467;Laerm;64050;50.634;3.062;2023-03-23T15:31:26;51.08;47.72;67.33;;
75467;Laerm;64050;50.634;3.062;2023-03-23T15:33:54;52.23;47.76;69.43;;
75467;Laerm;64050;50.634;3.062;2023-03-23T15:36:20;51.90;47.88;60.29;;